Time;durP1;ratioP1;P1;durP2;ratioP2;P2;SDS_P1;SDS_P2;PMS_P1;PMS_P2;Temp;Humidity;BMP_temperature;BMP_pressure;BME280_temperature;BME280_humidity;BME280_pressure;Samples;Min_cycle;Max_cycle;Signal;HPM_P1;HPM_P2
2024/02/25 00:01:46;;;;;;;;;;;;;;;-144.99;nan;52582.63;5046044;28;19990;-66
2024/02/25 00:04:15;;;;;;;;;;;;;;;-144.99;nan;52605.03;5038497;28;19932;-69
2024/02/25 00:06:44;;;;;;;;;;;;;;;-144.99;nan;52627.47;5040719;28;20028;-73
2024/02/25 00:09:11;;;;;;;;;;;;;;;-144.99;nan;52590.78;5046017;28;19925;-72
2024/02/25 00:11:40;;;;;;;;;;;;;;;-144.99;nan;52574.47;5050717;28;19933;-66
2024/02/25 00:14:07;;;;;;;;;;;;;;;-144.99;nan;52590.78;5037614;28;20063;-65
2024/02/25 00:16:34;;;;;;;;;;;;;;;-144.99;nan;52629.50;5040324;28;19929;-66
2024/02/25 00:19:01;;;;;;;;;;;;;;;-144.99;nan;52615.25;5040156;28;20330;-65
2024/02/25 00:21:29;;;;;;;;;;;;;;;-144.99;nan;52619.31;5051561;28;19929;-65
2024/02/25 00:23:55;;;;;;;;;;;;;;;-144.99;nan;52594.84;5042173;28;19976;-66
2024/02/25 00:26:22;;;;;;;;;;;;;;;-144.99;nan;52627.47;5034483;28;19929;-65
2024/02/25 00:28:48;;;;;;;;;;;;;;;-144.99;nan;52603.00;5043211;28;20003;-65
2024/02/25 00:31:15;;;;;;;;;;;;;;;-144.99;nan;52584.66;5044739;28;20024;-66
2024/02/25 00:33:41;;;;;;;;;;;;;;;-144.99;nan;52590.78;5048247;28;20131;-65
2024/02/25 00:36:08;;;;;;;;;;;;;;;-144.99;nan;52594.84;5047031;28;19987;-65
2024/02/25 00:38:36;;;;;;;;;;;;;;;-144.99;nan;52586.69;5041182;28;19925;-65
2024/02/25 00:41:02;;;;;;;;;;;;;;;-144.99;nan;52594.84;5045299;28;19980;-65
2024/02/25 00:43:29;;;;;;;;;;;;;;;-144.99;nan;52566.31;5049096;28;19929;-65
2024/02/25 00:45:55;;;;;;;;;;;;;;;-144.99;nan;52603.00;5042337;28;19929;-68
2024/02/25 00:48:22;;;;;;;;;;;;;;;-144.99;nan;52603.00;5041881;28;19939;-65
2024/02/25 00:50:48;;;;;;;;;;;;;;;-144.99;nan;52586.69;5042129;28;19933;-66
2024/02/25 00:53:16;;;;;;;;;;;;;;;-144.99;nan;52578.53;5047702;28;20319;-67
2024/02/25 00:55:44;;;;;;;;;;;;;;;-144.99;nan;52570.38;5043164;28;20327;-76
2024/02/25 00:58:10;;;;;;;;;;;;;;;-144.99;nan;52582.63;5049284;28;19959;-76
2024/02/25 01:00:37;;;;;;;;;;;;;;;-144.99;nan;52656.00;5050317;28;19925;-75
2024/02/25 01:03:03;;;;;;;;;;;;;;;-144.99;nan;52594.84;5043267;28;20024;-69
2024/02/25 01:05:30;;;;;;;;;;;;;;;-144.99;nan;52623.38;5045428;28;19936;-68
2024/02/25 01:07:56;;;;;;;;;;;;;;;-144.99;nan;52619.31;5044232;28;19956;-67
2024/02/25 01:10:23;;;;;;;;;;;;;;;-144.99;nan;52574.47;5044928;28;20031;-67
2024/02/25 01:12:51;;;;;;;;;;;;;;;-144.99;nan;52586.69;5041699;28;19928;-68
2024/02/25 01:15:17;;;;;;;;;;;;;;;-144.99;nan;52607.09;5050170;28;19974;-67
2024/02/25 01:17:44;;;;;;;;;;;;;;;-144.99;nan;52552.03;5064404;28;19939;-66
2024/02/25 01:20:10;;;;;;;;;;;;;;;-144.99;nan;52586.69;5053060;28;20399;-66
2024/02/25 01:22:37;;;;;;;;;;;;;;;-144.99;nan;52570.38;5053695;28;19968;-67
2024/02/25 01:25:04;;;;;;;;;;;;;;;-144.99;nan;52554.09;5066128;28;19925;-67
2024/02/25 01:27:31;;;;;;;;;;;;;;;-144.99;nan;52598.94;5062592;28;19987;-66
2024/02/25 01:29:59;;;;;;;;;;;;;;;-144.99;nan;52615.25;5058697;28;19932;-65
2024/02/25 01:32:26;;;;;;;;;;;;;;;-144.99;nan;52603.00;5055537;28;20426;-65
2024/02/25 01:34:52;;;;;;;;;;;;;;;-144.99;nan;52613.19;5052050;28;19929;-66
2024/02/25 01:37:19;;;;;;;;;;;;;;;-144.99;nan;52586.69;5051171;28;19952;-67
2024/02/25 01:39:45;;;;;;;;;;;;;;;-144.99;nan;52547.97;5052530;28;20003;-65
2024/02/25 01:42:12;;;;;;;;;;;;;;;-144.99;nan;52631.53;5040039;28;19968;-64
2024/02/25 01:44:49;;;;;;;;;;;;;;;-144.99;nan;52562.25;5047720;28;19996;-69
2024/02/25 01:47:17;;;;;;;;;;;;;;;-144.99;nan;52554.09;5053937;28;19960;-69
2024/02/25 01:49:43;;;;;;;;;;;;;;;-144.99;nan;52582.63;5064963;28;19925;-69
2024/02/25 01:52:10;;;;;;;;;;;;;;;-144.99;nan;52584.66;5064838;28;19939;-69
2024/02/25 01:54:36;;;;;;;;;;;;;;;-144.99;nan;52598.94;5071871;28;19932;-72
2024/02/25 01:57:03;;;;;;;;;;;;;;;-144.99;nan;52578.53;5077384;28;19928;-71
2024/02/25 01:59:30;;;;;;;;;;;;;;;-144.99;nan;52594.84;5075559;28;19912;-72
2024/02/25 02:01:57;;;;;;;;;;;;;;;-144.99;nan;52582.63;5069744;28;19978;-71
2024/02/25 02:04:25;;;;;;;;;;;;;;;-144.99;nan;52611.16;5067129;28;19920;-71
2024/02/25 02:06:51;;;;;;;;;;;;;;;-144.99;nan;52615.25;5064412;28;19932;-71
2024/02/25 02:09:18;;;;;;;;;;;;;;;-144.99;nan;52607.09;5065392;28;19924;-71
2024/02/25 02:11:56;;;;;;;;;;;;;;;-144.99;nan;52615.25;5064806;28;19937;-71
2024/02/25 02:14:22;;;;;;;;;;;;;;;-144.99;nan;52582.63;4704424;28;9999937;-72
2024/02/25 02:16:49;;;;;;;;;;;;;;;-144.99;nan;52586.69;5069391;28;19950;-71
2024/02/25 02:19:15;;;;;;;;;;;;;;;-144.99;nan;52615.25;5060800;28;19928;-72
2024/02/25 02:21:43;;;;;;;;;;;;;;;-144.99;nan;52615.25;5058448;28;20346;-72
2024/02/25 02:24:12;;;;;;;;;;;;;;;-144.99;nan;52600.97;5061015;28;20022;-73
2024/02/25 02:26:38;;;;;;;;;;;;;;;-144.99;nan;52611.16;5062263;28;19924;-72
2024/02/25 02:29:04;;;;;;;;;;;;;;;-144.99;nan;52631.53;5053739;28;19940;-72
2024/02/25 02:31:31;;;;;;;;;;;;;;;-144.99;nan;52594.84;5058147;28;19925;-61
2024/02/25 02:33:57;;;;;;;;;;;;;;;-144.99;nan;52600.97;5047978;28;19994;-61
2024/02/25 02:36:24;;;;;;;;;;;;;;;-144.99;nan;52615.25;5053869;28;20305;-62
2024/02/25 02:38:53;;;;;;;;;;;;;;;-144.99;nan;52633.59;5047590;28;20348;-62
2024/02/25 02:41:23;;;;;;;;;;;;;;;-144.99;nan;52574.47;5045060;28;20003;-63
2024/02/25 02:43:49;;;;;;;;;;;;;;;-144.99;nan;52623.38;5046042;28;19975;-62
2024/02/25 02:46:16;;;;;;;;;;;;;;;-144.99;nan;52560.19;5045133;28;19925;-65
2024/02/25 02:48:42;;;;;;;;;;;;;;;-144.99;nan;52570.38;5050392;28;20012;-64
2024/02/25 02:51:09;;;;;;;;;;;;;;;-144.99;nan;52592.81;5055554;28;19925;-65
2024/02/25 02:53:35;;;;;;;;;;;;;;;-144.99;nan;52578.53;5063542;28;19968;-65
2024/02/25 02:56:03;;;;;;;;;;;;;;;-144.99;nan;52603.00;5049056;28;20003;-65
2024/02/25 02:58:30;;;;;;;;;;;;;;;-144.99;nan;52611.16;5045874;28;20370;-65
2024/02/25 03:00:55;;;;;;;;;;;;;;;-144.99;nan;52558.16;5050188;28;19967;-64
2024/02/25 03:03:22;;;;;;;;;;;;;;;-144.99;nan;52619.31;5046543;28;20420;-65
2024/02/25 03:05:48;;;;;;;;;;;;;;;-144.99;nan;52584.66;5042735;28;19965;-64
2024/02/25 03:08:15;;;;;;;;;;;;;;;-144.99;nan;52611.16;5044643;28;20021;-65
2024/02/25 03:10:42;;;;;;;;;;;;;;;-144.99;nan;52647.84;5061073;28;20015;-70
2024/02/25 03:13:10;;;;;;;;;;;;;;;-144.99;nan;52611.16;5049276;28;19928;-68
2024/02/25 03:15:37;;;;;;;;;;;;;;;-144.99;nan;52619.31;5054438;28;19924;-70
2024/02/25 03:18:03;;;;;;;;;;;;;;;-144.99;nan;52574.47;5048041;28;20015;-70
2024/02/25 03:20:30;;;;;;;;;;;;;;;-144.99;nan;52603.00;5040545;28;20498;-69
2024/02/25 03:22:56;;;;;;;;;;;;;;;-144.99;nan;52609.13;5039111;28;19951;-69
2024/02/25 03:25:23;;;;;;;;;;;;;;;-144.99;nan;52562.25;5059503;28;19974;-70
2024/02/25 03:27:50;;;;;;;;;;;;;;;-144.99;nan;52550.00;5064202;28;19928;-69
2024/02/25 03:30:18;;;;;;;;;;;;;;;-144.99;nan;52598.94;5063853;28;19943;-69
2024/02/25 03:32:44;;;;;;;;;;;;;;;-144.99;nan;52637.66;5062248;28;19925;-69
2024/02/25 03:35:11;;;;;;;;;;;;;;;-144.99;nan;52611.16;5049837;28;19925;-67
2024/02/25 03:37:39;;;;;;;;;;;;;;;-144.99;nan;52572.44;5045083;28;20023;-68
2024/02/25 03:40:06;;;;;;;;;;;;;;;-144.99;nan;52627.47;5040687;28;20025;-69
2024/02/25 03:42:32;;;;;;;;;;;;;;;-144.99;nan;52554.09;5043374;28;19933;-70
2024/02/25 03:44:59;;;;;;;;;;;;;;;-144.99;nan;52572.44;5051785;28;20361;-68
2024/02/25 03:47:27;;;;;;;;;;;;;;;-144.99;nan;52611.16;5042657;28;19925;-68
2024/02/25 03:49:53;;;;;;;;;;;;;;;-144.99;nan;52598.94;5044305;28;19948;-68
2024/02/25 03:52:20;;;;;;;;;;;;;;;-144.99;nan;52590.78;5044037;28;20584;-67
2024/02/25 03:54:47;;;;;;;;;;;;;;;-144.99;nan;52619.31;5046370;28;19929;-68
2024/02/25 03:57:13;;;;;;;;;;;;;;;-144.99;nan;52603.00;5049479;28;20545;-68
2024/02/25 03:59:40;;;;;;;;;;;;;;;-144.99;nan;52574.47;5043390;28;20460;-67
2024/02/25 04:02:06;;;;;;;;;;;;;;;-144.99;nan;52574.47;5044023;28;20645;-67
2024/02/25 04:04:34;;;;;;;;;;;;;;;-144.99;nan;52611.16;5042692;28;20547;-67
2024/02/25 04:07:00;;;;;;;;;;;;;;;-144.99;nan;52603.00;5043531;28;20019;-67
2024/02/25 04:09:27;;;;;;;;;;;;;;;-144.99;nan;52653.97;5045603;28;20009;-66
2024/02/25 04:11:53;;;;;;;;;;;;;;;-144.99;nan;52611.16;5044188;28;19972;-66
2024/02/25 04:14:20;;;;;;;;;;;;;;;-144.99;nan;52574.47;5047777;28;20322;-66
2024/02/25 04:16:46;;;;;;;;;;;;;;;-144.99;nan;52611.16;5038275;28;20368;-66
2024/02/25 04:19:12;;;;;;;;;;;;;;;-144.99;nan;52627.47;5040034;28;20422;-66
2024/02/25 04:21:41;;;;;;;;;;;;;;;-144.99;nan;52596.88;5052294;28;20605;-67
2024/02/25 04:24:08;;;;;;;;;;;;;;;-144.99;nan;52582.63;5032509;28;19929;-67
2024/02/25 04:26:34;;;;;;;;;;;;;;;-144.99;nan;52594.84;5047777;28;19990;-68
2024/02/25 04:29:00;;;;;;;;;;;;;;;-144.99;nan;52594.84;5045826;28;20252;-68
2024/02/25 04:31:27;;;;;;;;;;;;;;;-144.99;nan;52619.31;5039316;28;20028;-68
2024/02/25 04:33:53;;;;;;;;;;;;;;;-144.99;nan;52592.81;5041102;28;20039;-68
2024/02/25 04:36:20;;;;;;;;;;;;;;;-144.99;nan;52611.16;5037089;28;20446;-68
2024/02/25 04:38:48;;;;;;;;;;;;;;;-144.99;nan;52621.34;5052710;28;19968;-67
2024/02/25 04:41:14;;;;;;;;;;;;;;;-144.99;nan;52574.47;5038959;28;19956;-68
2024/02/25 04:43:42;;;;;;;;;;;;;;;-144.99;nan;52592.81;5042586;28;20455;-68
2024/02/25 04:46:09;;;;;;;;;;;;;;;-144.99;nan;52590.78;5041576;28;19948;-67
2024/02/25 04:48:37;;;;;;;;;;;;;;;-144.99;nan;52598.94;5053964;28;19978;-67
2024/02/25 04:51:04;;;;;;;;;;;;;;;-144.99;nan;52570.38;5047807;28;20058;-67
2024/02/25 04:53:30;;;;;;;;;;;;;;;-144.99;nan;52554.09;5042360;28;20032;-68
2024/02/25 04:56:00;;;;;;;;;;;;;;;-144.99;nan;52590.78;5039696;28;19975;-67
2024/02/25 04:58:26;;;;;;;;;;;;;;;-144.99;nan;52570.38;5046186;28;19925;-68
2024/02/25 05:00:53;;;;;;;;;;;;;;;-144.99;nan;52586.69;5044350;28;19960;-68
2024/02/25 05:03:19;;;;;;;;;;;;;;;-144.99;nan;52607.09;5053838;28;20002;-68
2024/02/25 05:05:46;;;;;;;;;;;;;;;-144.99;nan;52578.53;5042755;28;20430;-71
2024/02/25 05:08:12;;;;;;;;;;;;;;;-144.99;nan;52582.63;5045004;28;19933;-72
2024/02/25 05:10:39;;;;;;;;;;;;;;;-144.99;nan;52570.38;5046740;28;19952;-74
2024/02/25 05:13:07;;;;;;;;;;;;;;;-144.99;nan;52594.84;5052293;28;19925;-74
2024/02/25 05:15:34;;;;;;;;;;;;;;;-144.99;nan;52598.94;5050104;28;19929;-75
2024/02/25 05:18:00;;;;;;;;;;;;;;;-144.99;nan;52572.44;5048805;28;20143;-76
2024/02/25 05:20:27;;;;;;;;;;;;;;;-144.99;nan;52600.97;5050554;28;20090;-75
2024/02/25 05:22:54;;;;;;;;;;;;;;;-144.99;nan;52545.94;5047249;28;19933;-74
2024/02/25 05:25:21;;;;;;;;;;;;;;;-144.99;nan;52603.00;5050913;28;19933;-75
2024/02/25 05:27:47;;;;;;;;;;;;;;;-144.99;nan;52619.31;5046190;28;20137;-76
2024/02/25 05:30:15;;;;;;;;;;;;;;;-144.99;nan;52615.25;5053183;28;19924;-73
2024/02/25 05:32:43;;;;;;;;;;;;;;;-144.99;nan;52603.00;5046828;28;20035;-73
2024/02/25 05:35:10;;;;;;;;;;;;;;;-144.99;nan;52594.84;5059869;28;19924;-72
2024/02/25 05:37:36;;;;;;;;;;;;;;;-144.99;nan;52558.16;5054006;28;20023;-73
2024/02/25 05:40:04;;;;;;;;;;;;;;;-144.99;nan;52566.31;5042904;28;19940;-73
2024/02/25 05:42:31;;;;;;;;;;;;;;;-144.99;nan;52590.78;5050810;28;20169;-73
2024/02/25 05:44:58;;;;;;;;;;;;;;;-144.99;nan;52574.47;5042329;28;20035;-71
2024/02/25 05:47:26;;;;;;;;;;;;;;;-144.99;nan;52594.84;5050511;28;19990;-72
2024/02/25 05:49:52;;;;;;;;;;;;;;;-144.99;nan;52572.44;5045472;28;19987;-71
2024/02/25 05:52:19;;;;;;;;;;;;;;;-144.99;nan;52574.47;5061395;28;20374;-66
2024/02/25 05:54:45;;;;;;;;;;;;;;;-144.99;nan;52615.25;5045037;28;20358;-65
2024/02/25 05:57:11;;;;;;;;;;;;;;;-144.99;nan;52613.19;5045061;28;19975;-66
2024/02/25 05:59:38;;;;;;;;;;;;;;;-144.99;nan;52590.78;5050405;28;19986;-67
2024/02/25 06:02:05;;;;;;;;;;;;;;;-144.99;nan;52643.78;5046577;28;20015;-67
2024/02/25 06:04:36;;;;;;;;;;;;;;;-144.99;nan;52566.31;5063253;28;19924;-67
2024/02/25 06:07:03;;;;;;;;;;;;;;;-144.99;nan;52592.81;5049361;28;20343;-69
2024/02/25 06:09:29;;;;;;;;;;;;;;;-144.99;nan;52590.78;5046711;28;20019;-68
2024/02/25 06:11:56;;;;;;;;;;;;;;;-144.99;nan;52582.63;5047212;28;20335;-66
2024/02/25 06:14:22;;;;;;;;;;;;;;;-144.99;nan;52598.94;5042093;28;20411;-67
2024/02/25 06:16:49;;;;;;;;;;;;;;;-144.99;nan;52572.44;5045812;28;20374;-67
2024/02/25 06:19:15;;;;;;;;;;;;;;;-144.99;nan;52590.78;5047692;28;20286;-70
2024/02/25 06:21:44;;;;;;;;;;;;;;;-144.99;nan;52594.84;5044876;28;19925;-68
2024/02/25 06:24:11;;;;;;;;;;;;;;;-144.99;nan;52558.16;5051742;28;20374;-68
2024/02/25 06:26:38;;;;;;;;;;;;;;;-144.99;nan;52619.31;5050663;28;20019;-69
2024/02/25 06:29:04;;;;;;;;;;;;;;;-144.99;nan;52582.63;5047047;28;20012;-67
2024/02/25 06:31:31;;;;;;;;;;;;;;;-144.99;nan;52574.47;5048751;28;19968;-68
2024/02/25 06:33:57;;;;;;;;;;;;;;;-144.99;nan;52554.09;5054394;28;19928;-68
2024/02/25 06:36:24;;;;;;;;;;;;;;;-144.99;nan;52623.38;5051270;28;19932;-68
2024/02/25 06:38:52;;;;;;;;;;;;;;;-144.99;nan;52582.63;5054296;28;20445;-66
2024/02/25 06:41:19;;;;;;;;;;;;;;;-144.99;nan;52603.00;5046999;28;19984;-66
2024/02/25 06:43:45;;;;;;;;;;;;;;;-144.99;nan;52566.31;5056994;28;20021;-71
2024/02/25 06:46:12;;;;;;;;;;;;;;;-144.99;nan;52594.84;5048833;28;20121;-72
2024/02/25 06:48:38;;;;;;;;;;;;;;;-144.99;nan;52588.75;5042044;28;20015;-62
2024/02/25 06:51:05;;;;;;;;;;;;;;;-144.99;nan;52582.63;5046200;28;19940;-62
2024/02/25 06:53:33;;;;;;;;;;;;;;;-144.99;nan;52582.63;5047068;28;19925;-62
2024/02/25 06:56:01;;;;;;;;;;;;;;;-144.99;nan;52590.78;5048063;28;20484;-61
2024/02/25 06:58:28;;;;;;;;;;;;;;;-144.99;nan;52574.47;5037680;28;19994;-66
2024/02/25 07:00:54;;;;;;;;;;;;;;;-144.99;nan;52619.31;5049830;28;19929;-66
2024/02/25 07:03:21;;;;;;;;;;;;;;;-144.99;nan;52556.13;5043742;28;19929;-66
2024/02/25 07:05:47;;;;;;;;;;;;;;;-144.99;nan;52590.78;5036728;28;19932;-66
2024/02/25 07:08:14;;;;;;;;;;;;;;;-144.99;nan;52590.78;5048302;28;19982;-66
2024/02/25 07:10:40;;;;;;;;;;;;;;;-144.99;nan;52603.00;5044981;28;19967;-66
2024/02/25 07:13:08;;;;;;;;;;;;;;;-144.99;nan;52607.09;5043384;28;19979;-66
2024/02/25 07:15:34;;;;;;;;;;;;;;;-144.99;nan;52594.84;5047431;28;19984;-68
2024/02/25 07:18:01;;;;;;;;;;;;;;;-144.99;nan;52568.34;5050215;28;20457;-66
2024/02/25 07:20:27;;;;;;;;;;;;;;;-144.99;nan;52592.81;5049753;28;19936;-66
2024/02/25 07:22:54;;;;;;;;;;;;;;;-144.99;nan;52594.84;5050631;28;19933;-66
2024/02/25 07:25:20;;;;;;;;;;;;;;;-144.99;nan;52627.47;5045071;28;19940;-68
2024/02/25 07:27:47;;;;;;;;;;;;;;;-144.99;nan;52582.63;5048990;28;19983;-68
2024/02/25 07:30:16;;;;;;;;;;;;;;;-144.99;nan;52545.94;5049237;28;19928;-68
2024/02/25 07:32:43;;;;;;;;;;;;;;;-144.99;nan;52574.47;5056478;28;20257;-67
2024/02/25 07:35:09;;;;;;;;;;;;;;;-144.99;nan;52580.59;5037682;28;19960;-68
2024/02/25 07:37:36;;;;;;;;;;;;;;;-144.99;nan;52570.38;5053785;28;20349;-68
2024/02/25 07:40:04;;;;;;;;;;;;;;;-144.99;nan;52580.59;5048977;28;20026;-67
2024/02/25 07:42:31;;;;;;;;;;;;;;;-144.99;nan;52578.53;5046398;28;19978;-68
2024/02/25 07:44:57;;;;;;;;;;;;;;;-144.99;nan;52617.28;5034212;28;19928;-66
2024/02/25 07:47:25;;;;;;;;;;;;;;;-144.99;nan;52554.09;5042033;28;19976;-65
2024/02/25 07:49:51;;;;;;;;;;;;;;;-144.99;nan;52603.00;5048838;28;20030;-66
2024/02/25 07:52:18;;;;;;;;;;;;;;;-144.99;nan;52603.00;5044356;28;19928;-68
2024/02/25 07:54:44;;;;;;;;;;;;;;;-144.99;nan;52572.44;5048920;28;19970;-70
2024/02/25 07:57:11;;;;;;;;;;;;;;;-144.99;nan;52613.19;5039418;28;19979;-69
2024/02/25 07:59:38;;;;;;;;;;;;;;;-144.99;nan;52574.47;5047095;28;20351;-69
2024/02/25 08:02:05;;;;;;;;;;;;;;;-144.99;nan;52570.38;5054898;28;19924;-70
2024/02/25 08:04:36;;;;;;;;;;;;;;;-144.99;nan;52562.25;5049053;28;20001;-67
2024/02/25 08:07:03;;;;;;;;;;;;;;;-144.99;nan;52574.47;5046382;28;19969;-62
2024/02/25 08:09:30;;;;;;;;;;;;;;;-144.99;nan;52558.16;5049312;28;19975;-62
2024/02/25 08:11:57;;;;;;;;;;;;;;;-144.99;nan;52596.88;5051624;28;20017;-62
2024/02/25 08:14:23;;;;;;;;;;;;;;;-144.99;nan;52570.38;5046739;28;19975;-62
2024/02/25 08:16:50;;;;;;;;;;;;;;;-144.99;nan;52568.34;5044831;28;19928;-63
2024/02/25 08:19:17;;;;;;;;;;;;;;;-144.99;nan;52533.69;5042174;28;19964;-63
2024/02/25 08:21:44;;;;;;;;;;;;;;;-144.99;nan;52594.84;5041603;28;19985;-63
2024/02/25 08:24:11;;;;;;;;;;;;;;;-144.99;nan;52574.47;5052688;28;19986;-63
2024/02/25 08:26:39;;;;;;;;;;;;;;;-144.99;nan;52560.19;5048720;28;19925;-63
2024/02/25 08:29:06;;;;;;;;;;;;;;;-144.99;nan;52582.63;5043499;28;20043;-65
2024/02/25 08:31:33;;;;;;;;;;;;;;;-144.99;nan;52550.00;5052177;28;19940;-67
2024/02/25 08:33:59;;;;;;;;;;;;;;;-144.99;nan;52545.94;5054238;28;19928;-69
2024/02/25 08:36:26;;;;;;;;;;;;;;;-144.99;nan;52531.66;5049015;28;19998;-69
2024/02/25 08:38:54;;;;;;;;;;;;;;;-144.99;nan;52590.78;5052617;28;19929;-70
2024/02/25 08:41:20;;;;;;;;;;;;;;;-144.99;nan;52533.69;5033995;28;20001;-69
2024/02/25 08:43:47;;;;;;;;;;;;;;;-144.99;nan;52558.16;5060005;22;19928;-71
2024/02/25 08:46:13;;;;;;;;;;;;;;;-144.99;nan;52562.25;5036267;28;20041;-72
2024/02/25 08:48:40;;;;;;;;;;;;;;;-144.99;nan;52600.97;5037000;28;20366;-69
2024/02/25 08:51:06;;;;;;;;;;;;;;;-144.99;nan;52586.69;5036982;28;20012;-69
2024/02/25 08:53:32;;;;;;;;;;;;;;;-144.99;nan;52578.53;5028832;28;20478;-70
2024/02/25 08:56:00;;;;;;;;;;;;;;;-144.99;nan;52552.03;5036563;28;20031;-72
2024/02/25 08:58:27;;;;;;;;;;;;;;;-144.99;nan;52543.91;5036321;28;20558;-69
2024/02/25 09:00:53;;;;;;;;;;;;;;;-144.99;nan;52566.31;5036478;28;20012;-71
2024/02/25 09:03:20;;;;;;;;;;;;;;;-144.99;nan;52564.28;5031032;28;20032;-70
2024/02/25 09:05:47;;;;;;;;;;;;;;;-144.99;nan;52582.63;5037660;28;19968;-71
2024/02/25 09:08:14;;;;;;;;;;;;;;;-144.99;nan;52576.50;5037601;28;19932;-71
2024/02/25 09:10:40;;;;;;;;;;;;;;;-144.99;nan;52554.09;5027113;28;20050;-71
2024/02/25 09:13:08;;;;;;;;;;;;;;;-144.99;nan;52564.28;5036910;28;20441;-71
2024/02/25 09:15:34;;;;;;;;;;;;;;;-144.99;nan;52572.44;5039756;28;20023;-72
2024/02/25 09:18:03;;;;;;;;;;;;;;;-144.99;nan;52560.19;5044337;28;20424;-72
2024/02/25 09:20:31;;;;;;;;;;;;;;;-144.99;nan;52588.75;5038445;28;19929;-70
2024/02/25 09:23:00;;;;;;;;;;;;;;;-144.99;nan;52545.94;5028268;28;19935;-69
2024/02/25 09:25:32;;;;;;;;;;;;;;;-144.99;nan;52550.00;5025872;28;20465;-70
2024/02/25 09:27:59;;;;;;;;;;;;;;;-144.99;nan;52570.38;5037098;28;20064;-69
2024/02/25 09:30:27;;;;;;;;;;;;;;;-144.99;nan;52566.31;5035368;28;20015;-69
2024/02/25 09:32:53;;;;;;;;;;;;;;;-144.99;nan;52574.47;5030434;28;19960;-70
2024/02/25 09:35:19;;;;;;;;;;;;;;;-144.99;nan;52554.09;5028227;28;19956;-70
2024/02/25 09:37:46;;;;;;;;;;;;;;;-144.99;nan;52588.75;5031888;28;19986;-70
2024/02/25 09:40:12;;;;;;;;;;;;;;;-144.99;nan;52517.41;5039360;28;20422;-70
2024/02/25 09:42:42;;;;;;;;;;;;;;;-144.99;nan;52554.09;5039236;28;19956;-71
2024/02/25 09:45:13;;;;;;;;;;;;;;;-144.99;nan;52582.63;5037659;28;20011;-66
2024/02/25 09:47:40;;;;;;;;;;;;;;;-144.99;nan;52568.34;5031750;28;20039;-68
2024/02/25 09:50:08;;;;;;;;;;;;;;;-144.99;nan;52541.84;5031399;28;20011;-68
2024/02/25 09:52:35;;;;;;;;;;;;;;;-144.99;nan;52509.25;5036349;28;20011;-69
2024/02/25 09:55:02;;;;;;;;;;;;;;;-144.99;nan;52521.47;5042145;28;19990;-70
2024/02/25 09:57:28;;;;;;;;;;;;;;;-144.99;nan;52529.63;5035930;28;20031;-70
2024/02/25 09:59:55;;;;;;;;;;;;;;;-144.99;nan;52554.09;5030610;28;20001;-69
2024/02/25 10:02:21;;;;;;;;;;;;;;;-144.99;nan;52537.78;5040865;28;19947;-70
2024/02/25 10:04:49;;;;;;;;;;;;;;;-144.99;nan;52562.25;5041151;28;20004;-69
2024/02/25 10:07:15;;;;;;;;;;;;;;;-144.99;nan;52513.31;5015567;28;19925;-68
2024/02/25 10:09:43;;;;;;;;;;;;;;;-144.99;nan;52517.41;5038258;28;20317;-70
2024/02/25 10:12:09;;;;;;;;;;;;;;;-144.99;nan;52509.25;5027278;28;19960;-67
2024/02/25 10:14:36;;;;;;;;;;;;;;;-144.99;nan;52513.31;5034243;28;20639;-71
2024/02/25 10:17:03;;;;;;;;;;;;;;;-144.99;nan;52505.16;5049862;28;19932;-73
2024/02/25 10:19:30;;;;;;;;;;;;;;;-144.99;nan;52558.16;5043809;28;19928;-73
2024/02/25 10:22:09;;;;;;;;;;;;;;;-144.99;nan;52517.41;5037750;28;20007;-73
2024/02/25 10:24:36;;;;;;;;;;;;;;;-144.99;nan;52562.25;5035648;28;19976;-73
2024/02/25 10:27:09;;;;;;;;;;;;;;;-144.99;nan;52525.56;5026951;28;20487;-72
2024/02/25 10:29:50;;;;;;;;;;;;;;;-144.99;nan;52492.94;5038327;28;19929;-73
2024/02/25 10:32:21;;;;;;;;;;;;;;;-144.99;nan;52513.31;5034178;28;19992;-72
2024/02/25 10:34:47;;;;;;;;;;;;;;;-144.99;nan;52525.56;5039355;28;19929;-72
2024/02/25 10:37:15;;;;;;;;;;;;;;;-144.99;nan;52537.78;5036510;28;20078;-73
2024/02/25 10:39:42;;;;;;;;;;;;;;;-144.99;nan;52537.78;5035098;28;20028;-73
2024/02/25 10:42:09;;;;;;;;;;;;;;;-144.99;nan;52490.91;5044962;28;20017;-72
2024/02/25 10:44:36;;;;;;;;;;;;;;;-144.99;nan;52539.81;5036598;28;20000;-74
2024/02/25 10:47:06;;;;;;;;;;;;;;;-144.99;nan;52517.41;5047901;28;20369;-72
2024/02/25 10:49:33;;;;;;;;;;;;;;;-144.99;nan;52558.16;5039144;28;19955;-73
2024/02/25 10:52:00;;;;;;;;;;;;;;;-144.99;nan;52525.56;5045341;28;20060;-74
2024/02/25 10:54:29;;;;;;;;;;;;;;;-144.99;nan;52537.78;5036392;28;19925;-73
2024/02/25 10:56:56;;;;;;;;;;;;;;;-144.99;nan;52517.41;5038434;28;19982;-73
2024/02/25 10:59:24;;;;;;;;;;;;;;;-144.99;nan;52505.16;5036433;28;20035;-71
2024/02/25 11:01:51;;;;;;;;;;;;;;;-144.99;nan;52509.25;5036068;28;19924;-76
2024/02/25 11:04:18;;;;;;;;;;;;;;;-144.99;nan;52545.94;5036076;28;19929;-70
2024/02/25 11:06:45;;;;;;;;;;;;;;;-144.99;nan;52521.47;5013164;28;20012;-71
2024/02/25 11:09:13;;;;;;;;;;;;;;;-144.99;nan;52550.00;5033253;28;19932;-72
2024/02/25 11:11:42;;;;;;;;;;;;;;;-144.99;nan;52562.25;5038556;28;19925;-72
2024/02/25 11:14:11;;;;;;;;;;;;;;;-144.99;nan;52550.00;5018406;28;20397;-71
2024/02/25 11:16:42;;;;;;;;;;;;;;;-144.99;nan;52570.38;5034722;28;19929;-71
2024/02/25 11:19:14;;;;;;;;;;;;;;;-144.99;nan;52576.50;5038282;28;19933;-71
2024/02/25 11:21:40;;;;;;;;;;;;;;;-144.99;nan;52550.00;5031679;28;19972;-73
2024/02/25 11:24:11;;;;;;;;;;;;;;;-144.99;nan;52578.53;5032823;28;20019;-72
2024/02/25 11:26:38;;;;;;;;;;;;;;;-144.99;nan;52566.31;5036848;28;19932;-71
2024/02/25 11:29:15;;;;;;;;;;;;;;;-144.99;nan;52584.66;5040418;28;20604;-72
2024/02/25 11:31:52;;;;;;;;;;;;;;;-144.99;nan;52572.44;5041402;28;20384;-71
2024/02/25 11:34:22;;;;;;;;;;;;;;;-144.99;nan;52554.09;5027781;28;19933;-70
2024/02/25 11:36:49;;;;;;;;;;;;;;;-144.99;nan;52554.09;5029801;28;19925;-73
2024/02/25 11:39:16;;;;;;;;;;;;;;;-144.99;nan;52558.16;5032502;28;19929;-72
2024/02/25 11:41:44;;;;;;;;;;;;;;;-144.99;nan;52448.09;5025221;28;20037;-73
2024/02/25 11:44:10;;;;;;;;;;;;;;;-144.99;nan;52533.69;5028990;28;19934;-71
2024/02/25 11:46:38;;;;;;;;;;;;;;;-144.99;nan;52476.63;5025312;28;19936;-71
2024/02/25 11:49:05;;;;;;;;;;;;;;;-144.99;nan;52501.09;5027409;28;19987;-71
2024/02/25 11:51:31;;;;;;;;;;;;;;;-144.99;nan;52558.16;5026816;28;20011;-70
2024/02/25 11:53:58;;;;;;;;;;;;;;;-144.99;nan;52525.56;5034567;28;20385;-73
2024/02/25 11:56:24;;;;;;;;;;;;;;;-144.99;nan;52525.56;5033839;28;20495;-71
2024/02/25 11:58:51;;;;;;;;;;;;;;;-144.99;nan;52537.78;5027397;28;20007;-73
2024/02/25 12:01:18;;;;;;;;;;;;;;;-144.99;nan;52523.50;5030064;28;19925;-72
2024/02/25 12:03:45;;;;;;;;;;;;;;;-144.99;nan;52566.31;5035046;28;19936;-73
2024/02/25 12:06:12;;;;;;;;;;;;;;;-144.99;nan;52562.25;5030252;28;20027;-70
2024/02/25 12:08:40;;;;;;;;;;;;;;;-144.99;nan;52590.78;5046568;28;20015;-72
2024/02/25 12:11:07;;;;;;;;;;;;;;;-144.99;nan;52578.53;5039993;28;19929;-73
2024/02/25 12:13:34;;;;;;;;;;;;;;;-144.99;nan;52582.63;5028212;28;19929;-71
2024/02/25 12:16:00;;;;;;;;;;;;;;;-144.99;nan;52529.63;5026334;28;19926;-71
2024/02/25 12:18:27;;;;;;;;;;;;;;;-144.99;nan;52562.25;5027203;28;20011;-73
2024/02/25 12:20:55;;;;;;;;;;;;;;;-144.99;nan;52552.03;5033784;28;20020;-72
2024/02/25 12:23:22;;;;;;;;;;;;;;;-144.99;nan;52541.84;5009882;28;20419;-71
2024/02/25 12:25:49;;;;;;;;;;;;;;;-144.99;nan;52545.94;5033877;28;19990;-71
2024/02/25 12:28:16;;;;;;;;;;;;;;;-144.99;nan;52543.91;5036943;28;20028;-71
2024/02/25 12:30:44;;;;;;;;;;;;;;;-144.99;nan;52521.47;5038067;28;20415;-71
2024/02/25 12:33:10;;;;;;;;;;;;;;;-144.99;nan;52525.56;5035208;28;20047;-71
2024/02/25 12:35:38;;;;;;;;;;;;;;;-144.99;nan;52560.19;5038481;28;19929;-71
2024/02/25 12:38:06;;;;;;;;;;;;;;;-144.99;nan;52578.53;5033372;28;19928;-73
2024/02/25 12:40:44;;;;;;;;;;;;;;;-144.99;nan;52547.97;5013089;28;10000594;-71
2024/02/25 12:43:13;;;;;;;;;;;;;;;-144.99;nan;52570.38;5030350;28;20492;-70
2024/02/25 12:45:40;;;;;;;;;;;;;;;-144.99;nan;52562.25;5030905;28;19994;-71